createdAt,value
2018-03-16T00:00:05.837Z,3.10
2018-03-16T00:02:33.443Z,3.10
2018-03-16T00:05:00.965Z,3.00
2018-03-16T00:07:29.224Z,3.00
2018-03-16T00:09:56.742Z,3.00
2018-03-16T00:12:24.253Z,3.10
2018-03-16T00:14:52.569Z,3.10
2018-03-16T00:17:20.191Z,3.00
2018-03-16T00:19:47.732Z,3.10
2018-03-16T00:22:17.687Z,3.10
2018-03-16T00:24:45.208Z,3.10
2018-03-16T00:27:12.732Z,3.00
2018-03-16T00:29:40.270Z,3.00
2018-03-16T00:32:07.790Z,3.00
2018-03-16T00:34:35.325Z,3.10
2018-03-16T00:37:02.846Z,3.10
2018-03-16T00:39:30.465Z,3.10
2018-03-16T00:41:57.976Z,3.00
2018-03-16T00:44:25.539Z,3.00
2018-03-16T00:46:53.187Z,3.00
2018-03-16T00:49:20.794Z,3.00
2018-03-16T00:51:48.352Z,3.00
2018-03-16T00:54:15.982Z,3.00
2018-03-16T00:56:43.487Z,3.00
2018-03-16T00:59:11.092Z,3.00
2018-03-16T01:01:38.612Z,3.00
2018-03-16T01:04:06.190Z,2.90
2018-03-16T01:06:34.468Z,2.90
2018-03-16T01:09:02.147Z,2.90
2018-03-16T01:11:29.737Z,2.90
2018-03-16T01:13:57.397Z,2.90
2018-03-16T01:16:25.005Z,2.90
2018-03-16T01:18:53.316Z,2.90
2018-03-16T01:21:20.980Z,2.90
2018-03-16T01:23:48.525Z,2.90
2018-03-16T01:26:16.637Z,2.90
2018-03-16T01:28:44.202Z,2.90
2018-03-16T01:31:12.768Z,2.90
2018-03-16T01:33:40.292Z,2.80
2018-03-16T01:36:07.849Z,2.90
2018-03-16T01:38:35.398Z,2.90
2018-03-16T01:41:03.696Z,2.90
2018-03-16T01:43:31.213Z,2.80
2018-03-16T01:45:58.806Z,2.80
2018-03-16T01:48:27.118Z,2.80
2018-03-16T01:50:54.611Z,2.80
2018-03-16T01:53:22.132Z,2.80
2018-03-16T01:55:49.647Z,2.80
2018-03-16T01:58:17.934Z,2.80
2018-03-16T02:00:46.322Z,2.80
2018-03-16T02:03:13.900Z,2.70
2018-03-16T02:05:41.424Z,2.70
2018-03-16T02:08:09.728Z,2.60
2018-03-16T02:10:37.303Z,2.60
2018-03-16T02:13:04.932Z,2.70
2018-03-16T02:15:33.216Z,2.60
2018-03-16T02:18:00.809Z,2.60
2018-03-16T02:20:28.360Z,2.60
2018-03-16T02:22:55.921Z,2.60
2018-03-16T02:25:23.467Z,2.60
2018-03-16T02:27:56.757Z,2.60
2018-03-16T02:30:24.281Z,2.50
2018-03-16T02:32:51.868Z,2.50
2018-03-16T02:35:19.430Z,2.50
2018-03-16T02:37:47.689Z,2.50
2018-03-16T02:40:16.724Z,2.40
2018-03-16T02:42:44.274Z,2.40
2018-03-16T02:45:11.824Z,2.50
2018-03-16T02:47:39.357Z,2.50
2018-03-16T02:50:06.872Z,2.40
2018-03-16T02:52:34.420Z,2.40
2018-03-16T02:55:01.950Z,2.40
2018-03-16T02:57:30.276Z,2.40
2018-03-16T02:59:57.826Z,2.40
2018-03-16T03:02:25.361Z,2.30
2018-03-16T03:04:52.866Z,2.30
2018-03-16T03:07:20.425Z,2.40
2018-03-16T03:09:47.964Z,2.40
2018-03-16T03:12:15.547Z,2.40
2018-03-16T03:14:43.053Z,2.30
2018-03-16T03:17:10.747Z,2.30
2018-03-16T03:19:38.299Z,2.30
2018-03-16T03:22:05.909Z,2.30
2018-03-16T03:24:33.428Z,2.30
2018-03-16T03:27:01.092Z,2.30
2018-03-16T03:29:28.637Z,2.30
2018-03-16T03:31:56.175Z,2.20
2018-03-16T03:34:23.685Z,2.20
2018-03-16T03:36:51.191Z,2.20
2018-03-16T03:39:18.747Z,2.20
2018-03-16T03:41:46.327Z,2.20
2018-03-16T03:44:13.891Z,2.20
2018-03-16T03:46:41.459Z,2.10
2018-03-16T03:49:08.990Z,2.10
2018-03-16T03:51:36.596Z,2.10
2018-03-16T03:54:04.153Z,2.10
2018-03-16T03:56:31.657Z,2.10
2018-03-16T03:58:59.173Z,2.10
2018-03-16T04:01:26.691Z,2.10
2018-03-16T04:03:54.256Z,2.10
2018-03-16T04:06:21.851Z,2.00
2018-03-16T04:08:49.374Z,2.00
2018-03-16T04:11:16.887Z,2.00
2018-03-16T04:13:45.264Z,2.00
2018-03-16T04:16:13.527Z,1.90
2018-03-16T04:18:41.063Z,1.90
2018-03-16T04:21:08.626Z,1.90
2018-03-16T04:23:36.140Z,1.90
2018-03-16T04:26:03.701Z,1.80
2018-03-16T04:28:31.200Z,1.90
2018-03-16T04:30:58.716Z,1.80
2018-03-16T04:33:26.278Z,1.80
2018-03-16T04:35:54.629Z,1.70
2018-03-16T04:38:22.228Z,1.70
2018-03-16T04:40:49.828Z,1.70
2018-03-16T04:43:17.360Z,1.70
2018-03-16T04:45:44.991Z,1.70
2018-03-16T04:48:12.520Z,1.70
2018-03-16T04:50:40.062Z,1.60
2018-03-16T04:53:07.593Z,1.60
2018-03-16T04:55:35.100Z,1.60
2018-03-16T04:58:02.720Z,1.60
2018-03-16T05:00:30.515Z,1.60
2018-03-16T05:02:58.147Z,1.60
2018-03-16T05:05:26.425Z,1.60
2018-03-16T05:07:53.999Z,1.60
2018-03-16T05:10:21.593Z,1.60
2018-03-16T05:12:49.431Z,1.60
2018-03-16T05:15:16.967Z,1.60
2018-03-16T05:17:44.491Z,1.50
2018-03-16T05:20:12.094Z,1.50
2018-03-16T05:22:42.136Z,1.50
2018-03-16T05:25:09.690Z,1.50
2018-03-16T05:27:37.223Z,1.60
2018-03-16T05:30:05.569Z,1.50
2018-03-16T05:32:33.162Z,1.50
2018-03-16T05:35:05.513Z,1.50
2018-03-16T05:37:33.797Z,1.50
2018-03-16T05:40:02.086Z,1.60
2018-03-16T05:42:29.647Z,1.50
2018-03-16T05:44:57.898Z,1.50
2018-03-16T05:47:25.522Z,1.50
2018-03-16T05:49:53.029Z,1.50
2018-03-16T05:52:21.334Z,1.50
2018-03-16T05:54:48.904Z,1.40
2018-03-16T05:57:16.439Z,1.50
2018-03-16T05:59:43.964Z,1.40
2018-03-16T06:02:11.538Z,1.40
2018-03-16T06:04:39.809Z,1.40
2018-03-16T06:07:07.343Z,1.40
2018-03-16T06:09:34.883Z,1.40
2018-03-16T06:12:02.493Z,1.30
2018-03-16T06:14:30.036Z,1.40
2018-03-16T06:16:58.360Z,1.40
2018-03-16T06:19:25.926Z,1.40
2018-03-16T06:21:53.564Z,1.30
2018-03-16T06:24:21.075Z,1.30
2018-03-16T06:26:48.581Z,1.30
2018-03-16T06:29:16.905Z,1.30
2018-03-16T06:31:44.444Z,1.20
2018-03-16T06:34:11.991Z,1.30
2018-03-16T06:36:39.525Z,1.30
2018-03-16T06:39:07.833Z,1.30
2018-03-16T06:41:35.360Z,1.30
2018-03-16T06:44:03.682Z,1.30
2018-03-16T06:46:31.207Z,1.30
2018-03-16T06:48:59.529Z,1.40
2018-03-16T06:51:27.042Z,1.30
2018-03-16T06:53:55.459Z,1.80
2018-03-16T06:56:23.023Z,1.80
2018-03-16T06:58:50.512Z,1.70
2018-03-16T07:01:18.040Z,1.60
2018-03-16T07:03:45.550Z,1.50
2018-03-16T07:06:13.152Z,1.40
2018-03-16T07:08:40.670Z,1.50
2018-03-16T07:11:08.941Z,1.30
2018-03-16T07:13:36.435Z,1.30
2018-03-16T07:16:03.996Z,1.30
2018-03-16T07:18:31.596Z,1.20
2018-03-16T07:20:59.958Z,1.20
2018-03-16T07:23:27.556Z,1.20
2018-03-16T07:25:55.085Z,1.20
2018-03-16T07:28:22.610Z,1.20
2018-03-16T07:30:50.331Z,1.20
2018-03-16T07:33:17.962Z,1.20
2018-03-16T07:35:45.482Z,1.20
2018-03-16T07:38:13.004Z,1.20
2018-03-16T07:40:40.541Z,1.10
2018-03-16T07:43:08.120Z,1.10
2018-03-16T07:45:41.357Z,1.10
2018-03-16T07:48:08.905Z,1.20
2018-03-16T07:50:36.498Z,1.20
2018-03-16T07:53:03.996Z,1.20
2018-03-16T07:55:31.591Z,1.10
2018-03-16T07:57:59.858Z,1.20
2018-03-16T08:00:28.156Z,1.20
2018-03-16T08:02:55.669Z,1.20
2018-03-16T08:05:23.187Z,1.30
2018-03-16T08:07:50.732Z,1.30
2018-03-16T08:10:19.231Z,1.20
2018-03-16T08:12:46.763Z,1.20
2018-03-16T08:15:15.115Z,1.30
2018-03-16T08:17:42.569Z,1.30
2018-03-16T08:20:10.105Z,1.20
2018-03-16T08:22:37.708Z,1.20
2018-03-16T08:25:05.986Z,1.10
2018-03-16T08:27:33.505Z,1.10
2018-03-16T08:30:01.004Z,1.10
2018-03-16T08:32:29.385Z,1.10
2018-03-16T08:34:57.684Z,1.20
2018-03-16T08:37:25.181Z,1.20
2018-03-16T08:39:52.675Z,1.10
2018-03-16T08:42:20.200Z,1.10
2018-03-16T08:44:47.699Z,1.00
2018-03-16T08:47:15.967Z,1.10
2018-03-16T08:49:44.281Z,1.10
2018-03-16T08:52:12.559Z,1.10
2018-03-16T08:54:40.082Z,1.10
2018-03-16T08:57:08.390Z,1.10
2018-03-16T08:59:35.888Z,1.10
2018-03-16T09:02:03.396Z,1.10
2018-03-16T09:04:31.663Z,1.20
2018-03-16T09:07:00.078Z,1.20
2018-03-16T09:09:27.616Z,1.20
2018-03-16T09:11:55.120Z,1.10
2018-03-16T09:14:22.616Z,1.10
2018-03-16T09:16:50.938Z,1.20
2018-03-16T09:19:18.427Z,1.10
2018-03-16T09:21:45.945Z,1.20
2018-03-16T09:24:13.436Z,1.20
2018-03-16T09:26:41.046Z,1.20
2018-03-16T09:29:08.544Z,1.20
2018-03-16T09:31:36.093Z,1.10
2018-03-16T09:34:03.585Z,1.20
2018-03-16T09:36:31.208Z,1.20
2018-03-16T09:38:58.759Z,1.30
2018-03-16T09:41:26.288Z,1.40
2018-03-16T09:43:54.545Z,1.30
2018-03-16T09:46:22.061Z,1.30
2018-03-16T09:48:49.550Z,1.30
2018-03-16T09:51:17.084Z,1.30
2018-03-16T09:53:44.571Z,1.30
2018-03-16T09:56:12.090Z,1.30
2018-03-16T09:58:39.595Z,1.30
2018-03-16T10:01:07.096Z,1.40
2018-03-16T10:03:34.610Z,1.40
2018-03-16T10:06:02.116Z,1.40
2018-03-16T10:08:29.624Z,1.30
2018-03-16T10:10:57.148Z,1.30
2018-03-16T10:13:24.674Z,1.30
2018-03-16T10:15:52.943Z,1.20
2018-03-16T10:18:20.492Z,1.20
2018-03-16T10:20:48.000Z,1.20
2018-03-16T10:23:15.544Z,1.20
2018-03-16T10:25:43.051Z,1.20
2018-03-16T10:28:10.563Z,1.30
2018-03-16T10:30:38.095Z,1.30
2018-03-16T10:33:05.606Z,1.40
2018-03-16T10:35:33.115Z,1.40
2018-03-16T10:38:01.418Z,2.30
2018-03-16T10:40:28.938Z,2.30
2018-03-16T10:42:56.472Z,1.90
2018-03-16T10:45:23.982Z,1.80
2018-03-16T10:47:51.542Z,1.60
2018-03-16T10:50:19.056Z,1.60
2018-03-16T10:52:46.569Z,1.50
2018-03-16T10:55:14.092Z,1.50
2018-03-16T10:57:41.592Z,1.60
2018-03-16T11:00:09.088Z,1.60
2018-03-16T11:02:42.323Z,1.60
2018-03-16T11:05:12.789Z,1.50
2018-03-16T11:07:42.767Z,1.50
2018-03-16T11:10:11.191Z,1.40
2018-03-16T11:12:38.703Z,1.40
2018-03-16T11:15:07.804Z,1.30
2018-03-16T11:17:35.348Z,1.30
2018-03-16T11:20:03.644Z,1.30
2018-03-16T11:22:31.168Z,1.30
2018-03-16T11:24:58.657Z,1.30
2018-03-16T11:27:26.237Z,1.30
2018-03-16T11:29:53.764Z,1.30
2018-03-16T11:32:21.286Z,1.30
2018-03-16T11:34:48.909Z,1.30
2018-03-16T11:37:16.456Z,1.20
2018-03-16T11:39:43.985Z,1.10
2018-03-16T11:42:11.523Z,1.20
2018-03-16T11:44:39.140Z,1.30
2018-03-16T11:47:06.685Z,1.30
2018-03-16T11:49:34.974Z,1.30
2018-03-16T11:52:02.563Z,1.30
2018-03-16T11:54:30.144Z,1.20
2018-03-16T11:56:57.774Z,1.20
2018-03-16T11:59:25.267Z,1.20
2018-03-16T12:01:52.798Z,1.30
2018-03-16T12:04:20.538Z,1.30
2018-03-16T12:06:48.024Z,1.20
2018-03-16T12:09:15.553Z,1.20
2018-03-16T12:11:43.072Z,1.20
2018-03-16T12:14:10.596Z,1.20
2018-03-16T12:16:38.132Z,1.20
2018-03-16T12:19:05.647Z,1.20
2018-03-16T12:21:33.171Z,1.30
2018-03-16T12:24:00.693Z,1.20
2018-03-16T12:26:28.972Z,1.10
2018-03-16T12:28:57.253Z,1.10
2018-03-16T12:31:24.796Z,1.10
2018-03-16T12:33:52.307Z,1.20
2018-03-16T12:36:19.821Z,1.20
2018-03-16T12:38:47.358Z,1.20
2018-03-16T12:41:14.888Z,1.20
2018-03-16T12:43:42.397Z,1.10
2018-03-16T12:46:10.838Z,0.90
2018-03-16T12:48:38.802Z,0.90
2018-03-16T12:51:06.348Z,0.90
2018-03-16T12:53:34.062Z,0.90
2018-03-16T12:56:02.373Z,1.00
2018-03-16T12:58:30.012Z,0.90
2018-03-16T13:00:58.308Z,0.80
2018-03-16T13:03:25.818Z,0.80
2018-03-16T13:05:54.176Z,0.80
2018-03-16T13:08:21.701Z,0.90
2018-03-16T13:10:49.962Z,1.00
2018-03-16T13:13:18.239Z,0.90
2018-03-16T13:15:45.791Z,0.90
2018-03-16T13:18:13.342Z,0.90
2018-03-16T13:20:41.052Z,0.80
2018-03-16T13:23:08.545Z,0.80
2018-03-16T13:25:36.049Z,0.80
2018-03-16T13:28:04.326Z,0.90
2018-03-16T13:30:32.740Z,0.90
2018-03-16T13:33:00.248Z,0.90
2018-03-16T13:35:28.543Z,0.90
2018-03-16T13:37:56.821Z,0.90
2018-03-16T13:40:25.095Z,0.90
2018-03-16T13:42:53.385Z,0.90
2018-03-16T13:45:20.900Z,0.80
2018-03-16T13:47:48.397Z,0.80
2018-03-16T13:50:16.693Z,0.80
2018-03-16T13:52:44.957Z,0.80
2018-03-16T13:55:12.494Z,0.70
2018-03-16T13:57:40.784Z,0.80
2018-03-16T14:00:09.060Z,0.80
2018-03-16T14:02:36.571Z,0.70
2018-03-16T14:05:04.106Z,0.70
2018-03-16T14:07:31.602Z,0.60
2018-03-16T14:09:59.114Z,0.60
2018-03-16T14:12:26.620Z,0.60
2018-03-16T14:14:54.128Z,0.50
2018-03-16T14:17:21.660Z,0.50
2018-03-16T14:19:50.066Z,0.50
2018-03-16T14:22:17.627Z,0.50
2018-03-16T14:24:45.132Z,0.40
2018-03-16T14:27:12.611Z,0.40
2018-03-16T14:29:40.207Z,0.30
2018-03-16T14:32:07.775Z,0.30
2018-03-16T14:34:35.276Z,0.20
2018-03-16T14:37:02.793Z,0.20
2018-03-16T14:39:30.301Z,0.20
2018-03-16T14:41:57.808Z,0.20
2018-03-16T14:44:25.316Z,0.10
2018-03-16T14:46:52.807Z,0.10
2018-03-16T14:49:20.333Z,0.00
2018-03-16T14:51:47.818Z,0.10
2018-03-16T14:54:16.139Z,0.10
2018-03-16T14:56:43.641Z,0.10
2018-03-16T14:59:11.949Z,0.10
2018-03-16T15:01:39.448Z,0.10
2018-03-16T15:04:06.969Z,0.10
2018-03-16T15:06:34.480Z,0.20
2018-03-16T15:09:02.048Z,0.20
2018-03-16T15:11:29.556Z,0.20
2018-03-16T15:13:57.089Z,0.10
2018-03-16T15:16:25.368Z,0.10
2018-03-16T15:18:52.898Z,0.10
2018-03-16T15:21:20.413Z,0.10
2018-03-16T15:23:47.938Z,0.20
2018-03-16T15:26:16.240Z,0.10
2018-03-16T15:28:43.745Z,0.10
2018-03-16T15:31:11.271Z,0.10
2018-03-16T15:33:38.771Z,0.10
2018-03-16T15:36:06.275Z,0.00
2018-03-16T15:38:33.802Z,0.00
2018-03-16T15:41:02.082Z,-0.20
2018-03-16T15:43:30.341Z,-0.10
2018-03-16T15:45:57.857Z,-0.10
2018-03-16T15:48:25.375Z,-0.10
2018-03-16T15:50:53.656Z,-0.20
2018-03-16T15:53:21.925Z,-0.20
2018-03-16T15:55:50.222Z,-0.10
2018-03-16T15:58:17.699Z,-0.10
2018-03-16T16:00:45.229Z,-0.10
2018-03-16T16:03:13.478Z,0.00
2018-03-16T16:05:41.009Z,0.00
2018-03-16T16:08:08.548Z,-0.10
2018-03-16T16:10:36.081Z,-0.10
2018-03-16T16:13:04.379Z,-0.10
2018-03-16T16:15:31.937Z,-0.10
2018-03-16T16:17:59.458Z,0.00
2018-03-16T16:20:26.984Z,-0.20
2018-03-16T16:22:54.481Z,-0.10
2018-03-16T16:25:22.018Z,-0.10
2018-03-16T16:27:49.567Z,-0.20
2018-03-16T16:30:17.070Z,-0.20
2018-03-16T16:32:45.565Z,-0.20
2018-03-16T16:35:13.104Z,-0.30
2018-03-16T16:37:41.359Z,-0.30
2018-03-16T16:40:08.860Z,-0.30
2018-03-16T16:42:36.396Z,-0.30
2018-03-16T16:45:04.695Z,-0.30
2018-03-16T16:47:32.210Z,-0.30
2018-03-16T16:49:59.708Z,-0.40
2018-03-16T16:52:27.228Z,-0.40
2018-03-16T16:54:54.896Z,-0.40
2018-03-16T16:57:22.336Z,-0.40
2018-03-16T16:59:50.078Z,-0.50
2018-03-16T17:02:17.572Z,-0.50
2018-03-16T17:04:45.085Z,-0.50
2018-03-16T17:07:12.639Z,-0.50
2018-03-16T17:09:40.220Z,-0.50
2018-03-16T17:12:07.752Z,-0.50
2018-03-16T17:14:35.250Z,-0.60
2018-03-16T17:17:02.763Z,-0.60
2018-03-16T17:19:31.052Z,-0.70
2018-03-16T17:21:58.541Z,-0.70
2018-03-16T17:24:26.057Z,-0.70
2018-03-16T17:26:53.597Z,-0.70
2018-03-16T17:29:21.104Z,-0.80
2018-03-16T17:31:48.623Z,-0.70
2018-03-16T17:34:16.946Z,-0.80
2018-03-16T17:36:44.459Z,-0.80
2018-03-16T17:39:11.998Z,-0.70
2018-03-16T17:41:39.500Z,-0.80
2018-03-16T17:44:07.041Z,-0.80
2018-03-16T17:46:35.325Z,-0.90
2018-03-16T17:49:03.606Z,-0.90
2018-03-16T17:51:31.095Z,-0.90
2018-03-16T17:53:58.644Z,-0.80
2018-03-16T17:56:26.143Z,-0.90
2018-03-16T17:58:55.256Z,-0.90
2018-03-16T18:01:22.924Z,-0.90
2018-03-16T18:03:51.246Z,-0.90
2018-03-16T18:06:18.752Z,-0.90
2018-03-16T18:08:47.031Z,-0.90
2018-03-16T18:11:15.316Z,-0.90
2018-03-16T18:13:43.583Z,-1.00
2018-03-16T18:16:11.864Z,-1.00
2018-03-16T18:18:40.172Z,-1.00
2018-03-16T18:21:07.758Z,-1.10
2018-03-16T18:23:35.290Z,-1.00
2018-03-16T18:26:02.801Z,-1.10
2018-03-16T18:28:30.488Z,-1.10
2018-03-16T18:33:49.895Z,-1.20
2018-03-16T18:36:17.435Z,-1.20
2018-03-16T18:38:46.456Z,-1.20
2018-03-16T18:41:13.983Z,-1.20
2018-03-16T18:43:41.555Z,-1.20
2018-03-16T18:46:09.933Z,-1.30
2018-03-16T18:48:38.196Z,-1.30
2018-03-16T18:51:05.702Z,-1.30
2018-03-16T18:53:33.203Z,-1.30
2018-03-16T18:56:00.717Z,-1.30
2018-03-16T18:58:28.203Z,-1.30
2018-03-16T19:00:55.700Z,-1.30
2018-03-16T19:03:24.003Z,-1.30
2018-03-16T19:05:51.537Z,-1.30
2018-03-16T19:08:19.795Z,-1.20
2018-03-16T19:10:48.085Z,-1.30
2018-03-16T19:13:16.336Z,-1.40
2018-03-16T19:15:43.857Z,-1.40
2018-03-16T19:18:11.424Z,-1.40
2018-03-16T19:20:38.948Z,-1.40
2018-03-16T19:23:07.228Z,-1.50
2018-03-16T19:25:35.506Z,-1.50
2018-03-16T19:28:03.924Z,-1.40
2018-03-16T19:30:32.699Z,-1.50
2018-03-16T19:33:00.225Z,-1.50
2018-03-16T19:35:27.963Z,-1.50
2018-03-16T19:37:55.573Z,-1.50
2018-03-16T19:40:23.079Z,-1.40
2018-03-16T19:42:50.626Z,-1.50
2018-03-16T19:45:18.158Z,-1.50
2018-03-16T19:47:45.712Z,-1.50
2018-03-16T19:50:13.882Z,-1.50
2018-03-16T19:52:41.400Z,-1.40
2018-03-16T19:55:08.907Z,-1.50
2018-03-16T19:57:37.527Z,-1.50
2018-03-16T20:00:05.858Z,-1.60
2018-03-16T20:02:33.417Z,-1.60
2018-03-16T20:05:00.975Z,-1.50
2018-03-16T20:07:28.535Z,-1.60
2018-03-16T20:09:56.071Z,-1.60
2018-03-16T20:12:23.679Z,-1.60
2018-03-16T20:14:51.292Z,-1.60
2018-03-16T20:17:19.588Z,-1.60
2018-03-16T20:19:48.099Z,-1.60
2018-03-16T20:22:15.645Z,-1.60
2018-03-16T20:24:43.198Z,-1.60
2018-03-16T20:27:10.707Z,-1.70
2018-03-16T20:29:38.257Z,-1.70
2018-03-16T20:32:05.790Z,-1.80
2018-03-16T20:34:33.274Z,-1.80
2018-03-16T20:37:00.810Z,-1.80
2018-03-16T20:39:28.308Z,-1.90
2018-03-16T20:41:55.908Z,-1.90
2018-03-16T20:44:23.435Z,-1.90
2018-03-16T20:46:51.033Z,-1.80
2018-03-16T20:49:18.631Z,-1.80
2018-03-16T20:51:46.129Z,-1.90
2018-03-16T20:54:14.431Z,-2.10
2018-03-16T20:56:41.971Z,-2.10
2018-03-16T20:59:09.516Z,-2.10
2018-03-16T21:01:37.078Z,-2.00
2018-03-16T21:04:04.627Z,-2.00
2018-03-16T21:06:32.121Z,-2.00
2018-03-16T21:08:59.683Z,-2.00
2018-03-16T21:11:27.310Z,-2.00
2018-03-16T21:13:55.030Z,-2.00
2018-03-16T21:16:24.439Z,-2.00
2018-03-16T21:18:52.278Z,-2.10
2018-03-16T21:21:19.844Z,-2.00
2018-03-16T21:23:47.399Z,-2.00
2018-03-16T21:26:15.042Z,-2.10
2018-03-16T21:28:43.535Z,-2.20
2018-03-16T21:31:11.098Z,-2.20
2018-03-16T21:33:38.685Z,-2.20
2018-03-16T21:36:06.225Z,-2.20
2018-03-16T21:38:33.797Z,-2.10
2018-03-16T21:41:01.398Z,-2.10
2018-03-16T21:43:28.925Z,-2.20
2018-03-16T21:45:56.484Z,-2.10
2018-03-16T21:48:23.990Z,-0.80
2018-03-16T21:50:51.852Z,-0.50
2018-03-16T21:53:19.383Z,-0.90
2018-03-16T21:55:46.884Z,-1.20
2018-03-16T21:58:15.153Z,-1.70
2018-03-16T22:00:43.435Z,-1.80
2018-03-16T22:03:11.752Z,-1.90
2018-03-16T22:05:39.410Z,-1.90
2018-03-16T22:08:06.901Z,-2.00
2018-03-16T22:10:34.494Z,-2.00
2018-03-16T22:13:02.779Z,-2.10
2018-03-16T22:15:31.043Z,-2.10
2018-03-16T22:17:58.527Z,-2.10
2018-03-16T22:20:26.029Z,-2.10
2018-03-16T22:22:53.512Z,-2.10
2018-03-16T22:25:21.026Z,-2.10
2018-03-16T22:27:48.519Z,-2.20
2018-03-16T22:30:16.108Z,-2.10
2018-03-16T22:32:44.707Z,-2.20
2018-03-16T22:35:12.204Z,-2.20
2018-03-16T22:37:39.709Z,-2.20
2018-03-16T22:40:07.987Z,-2.30
2018-03-16T22:42:36.552Z,-2.40
2018-03-16T22:45:04.081Z,-2.40
2018-03-16T22:47:31.568Z,-2.50
2018-03-16T22:49:59.151Z,-2.40
2018-03-16T22:52:28.336Z,-2.50
2018-03-16T22:54:55.838Z,-2.60
2018-03-16T22:57:23.359Z,-2.50
2018-03-16T22:59:51.619Z,-2.60
2018-03-16T23:02:19.113Z,-2.60
2018-03-16T23:04:46.644Z,-2.60
2018-03-16T23:07:15.805Z,-2.60
2018-03-16T23:09:43.290Z,-2.70
2018-03-16T23:12:10.862Z,-2.60
2018-03-16T23:14:39.132Z,-2.60
2018-03-16T23:17:07.399Z,-2.60
2018-03-16T23:19:36.429Z,-2.70
2018-03-16T23:22:03.919Z,-2.70
2018-03-16T23:24:31.439Z,-2.70
2018-03-16T23:26:59.687Z,-2.70
2018-03-16T23:29:27.246Z,-2.80
2018-03-16T23:31:54.740Z,-2.80
2018-03-16T23:34:22.994Z,-2.70
2018-03-16T23:36:50.566Z,-2.80
2018-03-16T23:39:19.696Z,-2.80
2018-03-16T23:41:47.193Z,-2.80
2018-03-16T23:44:14.775Z,-2.80
2018-03-16T23:46:43.051Z,-2.80
2018-03-16T23:49:11.299Z,-2.90
2018-03-16T23:51:38.783Z,-2.90
2018-03-16T23:54:07.063Z,-2.80
2018-03-16T23:56:35.330Z,-2.90
2018-03-16T23:59:03.039Z,-2.90
